createdAt,value
2023-02-15T00:00:15.008Z,101975.56
2023-02-15T00:01:17.619Z,101967.28
2023-02-15T00:02:20.831Z,101965.16
2023-02-15T00:03:22.798Z,101974.53
2023-02-15T00:04:46.955Z,101963.09
2023-02-15T00:05:48.553Z,101968.56
2023-02-15T00:06:51.627Z,101970.25
2023-02-15T00:07:53.283Z,101970.72
2023-02-15T00:08:56.573Z,101968.31
2023-02-15T00:09:58.615Z,101970.63
2023-02-15T00:11:08.434Z,101974.44
2023-02-15T00:12:11.017Z,101973.97
2023-02-15T00:13:14.980Z,101958.38
2023-02-15T00:14:18.751Z,101953.19
2023-02-15T00:15:21.266Z,101970.44
2023-02-15T00:16:22.957Z,101946.31
2023-02-15T00:17:26.823Z,101942.66
2023-02-15T00:18:28.393Z,101963.00
2023-02-15T00:19:31.591Z,101938.97
2023-02-15T00:20:33.385Z,101942.22
2023-02-15T00:21:37.643Z,101954.22
2023-02-15T00:22:39.526Z,101963.19
2023-02-15T00:23:42.166Z,101970.53
2023-02-15T00:24:43.832Z,101957.16
2023-02-15T00:25:46.408Z,101967.19
2023-02-15T00:26:48.684Z,101957.91
2023-02-15T00:27:51.508Z,101948.69
2023-02-15T00:28:55.373Z,101938.91
2023-02-15T00:29:58.061Z,101930.78
2023-02-15T00:31:05.065Z,101945.22
2023-02-15T00:32:07.967Z,101945.72
2023-02-15T00:33:09.599Z,101958.25
2023-02-15T00:34:14.734Z,101955.84
2023-02-15T00:35:16.698Z,101944.72
2023-02-15T00:36:19.503Z,101955.75
2023-02-15T00:37:21.156Z,101949.16
2023-02-15T00:38:23.821Z,101958.16
2023-02-15T00:39:25.558Z,101952.81
2023-02-15T00:40:28.202Z,101959.06
2023-02-15T00:41:30.102Z,101944.72
2023-02-15T00:42:32.827Z,101935.66
2023-02-15T00:43:35.549Z,101948.09
2023-02-15T00:44:39.554Z,101954.22
2023-02-15T00:45:41.432Z,101956.94
2023-02-15T00:46:44.349Z,101953.94
2023-02-15T00:47:46.252Z,101948.44
2023-02-15T00:48:49.114Z,101935.56
2023-02-15T00:49:50.784Z,101953.78
2023-02-15T00:50:57.186Z,101950.06
2023-02-15T00:51:58.787Z,101955.59
2023-02-15T00:53:04.055Z,101952.66
2023-02-15T00:54:06.244Z,101945.72
2023-02-15T00:55:09.319Z,101955.69
2023-02-15T00:56:11.028Z,101948.09
2023-02-15T00:57:13.585Z,101951.19
2023-02-15T00:58:16.064Z,101948.91
2023-02-15T00:59:19.708Z,101950.47
2023-02-15T01:00:22.739Z,101932.25
2023-02-15T01:01:26.819Z,101956.31
2023-02-15T01:02:29.271Z,101950.47
2023-02-15T01:03:31.920Z,101959.91
2023-02-15T01:04:33.600Z,101951.75
2023-02-15T01:05:36.330Z,101940.53
2023-02-15T01:06:38.042Z,101945.16
2023-02-15T01:07:40.904Z,101931.06
2023-02-15T01:08:42.630Z,101945.19
2023-02-15T01:09:45.121Z,101945.19
2023-02-15T01:10:48.145Z,101938.41
2023-02-15T01:11:51.195Z,101949.41
2023-02-15T01:12:53.445Z,101944.28
2023-02-15T01:13:58.121Z,101929.41
2023-02-15T01:15:00.040Z,101940.81
2023-02-15T01:16:05.448Z,101941.66
2023-02-15T01:17:07.235Z,101943.94
2023-02-15T01:18:10.017Z,101925.59
2023-02-15T01:19:11.702Z,101917.72
2023-02-15T01:20:16.052Z,101939.88
2023-02-15T01:21:20.809Z,101912.59
2023-02-15T01:22:23.502Z,101924.31
2023-02-15T01:23:25.230Z,101917.72
2023-02-15T01:24:27.855Z,101918.47
2023-02-15T01:25:29.406Z,101943.41
2023-02-15T01:26:31.939Z,101940.84
2023-02-15T01:27:33.611Z,101939.34
2023-02-15T01:28:36.761Z,101939.72
2023-02-15T01:29:38.404Z,101935.53
2023-02-15T01:30:41.257Z,101938.69
2023-02-15T01:31:44.492Z,101938.31
2023-02-15T01:32:47.252Z,101925.03
2023-02-15T01:33:50.569Z,101936.34
2023-02-15T01:34:52.150Z,101926.09
2023-02-15T01:35:59.788Z,101927.47
2023-02-15T01:37:01.845Z,101910.44
2023-02-15T01:38:04.563Z,101925.41
2023-02-15T01:39:06.182Z,101923.28
2023-02-15T01:40:13.480Z,101913.53
2023-02-15T01:41:21.045Z,101921.16
2023-02-15T01:42:26.527Z,101918.59
2023-02-15T01:43:41.350Z,101905.13
2023-02-15T01:44:50.590Z,101918.41
2023-02-15T01:45:53.686Z,101912.47
2023-02-15T01:46:56.711Z,101918.28
2023-02-15T01:48:05.344Z,101890.72
2023-02-15T01:49:12.702Z,101907.31
2023-02-15T01:50:19.980Z,101913.59
2023-02-15T01:51:24.699Z,101914.19
2023-02-15T01:52:27.890Z,101901.50
2023-02-15T01:53:36.926Z,101910.88
2023-02-15T01:54:42.939Z,101909.75
2023-02-15T01:55:48.369Z,101896.59
2023-02-15T01:56:50.956Z,101883.69
2023-02-15T01:57:52.920Z,101903.81
2023-02-15T01:58:59.081Z,101898.56
2023-02-15T02:00:04.756Z,101900.47
2023-02-15T02:01:10.502Z,101880.59
2023-02-15T02:02:15.857Z,101884.28
2023-02-15T02:03:18.949Z,101883.38
2023-02-15T02:04:27.386Z,101886.97
2023-02-15T02:05:31.151Z,101888.28
2023-02-15T02:06:34.441Z,101884.94
2023-02-15T02:07:40.694Z,101886.25
2023-02-15T02:08:43.165Z,101879.69
2023-02-15T02:09:46.978Z,101875.06
2023-02-15T02:10:48.561Z,101888.25
2023-02-15T02:11:55.108Z,101885.09
2023-02-15T02:13:00.788Z,101895.56
2023-02-15T02:14:03.608Z,101875.78
2023-02-15T02:15:06.856Z,101899.31
2023-02-15T02:16:16.214Z,101886.19
2023-02-15T02:17:24.530Z,101881.81
2023-02-15T02:18:41.076Z,101892.53
2023-02-15T02:20:27.470Z,101895.09
2023-02-15T02:22:06.424Z,101878.13
2023-02-15T02:23:29.231Z,101892.69
2023-02-15T02:24:58.006Z,101886.44
2023-02-15T02:26:39.944Z,101895.63
2023-02-15T02:27:47.072Z,101889.94
2023-02-15T02:29:23.766Z,101897.47
2023-02-15T02:31:20.675Z,101895.38
2023-02-15T02:32:53.988Z,101877.91
2023-02-15T02:34:06.820Z,101891.09
2023-02-15T02:35:14.165Z,101897.34
2023-02-15T02:36:26.556Z,101887.66
2023-02-15T02:37:35.536Z,101875.50
2023-02-15T02:38:52.188Z,101884.81
2023-02-15T02:40:05.304Z,101890.81
2023-02-15T02:41:18.694Z,101871.63
2023-02-15T02:42:30.277Z,101879.44
2023-02-15T02:43:40.392Z,101874.56
2023-02-15T02:44:44.923Z,101885.75
2023-02-15T02:45:55.101Z,101883.66
2023-02-15T02:47:03.313Z,101883.16
2023-02-15T02:48:08.943Z,101882.19
2023-02-15T02:49:13.506Z,101873.78
2023-02-15T02:50:17.600Z,101879.44
2023-02-15T02:51:23.329Z,101861.84
2023-02-15T02:52:40.754Z,101867.06
2023-02-15T02:53:43.298Z,101873.53
2023-02-15T02:54:45.124Z,101872.88
2023-02-15T02:55:52.693Z,101846.63
2023-02-15T02:56:57.511Z,101855.00
2023-02-15T02:58:08.063Z,101857.31
2023-02-15T02:59:15.890Z,101874.69
2023-02-15T03:00:20.773Z,101861.47
2023-02-15T03:01:28.300Z,101859.94
2023-02-15T03:02:36.247Z,101870.22
2023-02-15T03:03:41.209Z,101869.06
2023-02-15T03:04:50.120Z,101878.84
2023-02-15T03:05:56.448Z,101860.75
2023-02-15T03:07:04.840Z,101861.41
2023-02-15T03:08:10.819Z,101853.13
2023-02-15T03:09:22.574Z,101877.78
2023-02-15T03:10:26.162Z,101870.19
2023-02-15T03:11:29.060Z,101865.31
2023-02-15T03:12:33.513Z,101860.22
2023-02-15T03:13:37.267Z,101868.28
2023-02-15T03:14:40.840Z,101871.06
2023-02-15T03:16:04.100Z,101863.09
2023-02-15T03:17:08.845Z,101844.56
2023-02-15T03:18:10.856Z,101861.91
2023-02-15T03:19:17.538Z,101860.66
2023-02-15T03:20:26.506Z,101855.31
2023-02-15T03:21:35.854Z,101853.31
2023-02-15T03:22:41.787Z,101860.97
2023-02-15T03:23:44.755Z,101859.38
2023-02-15T03:24:55.950Z,101853.78
2023-02-15T03:26:00.295Z,101854.53
2023-02-15T03:27:06.076Z,101842.69
2023-02-15T03:28:11.530Z,101860.81
2023-02-15T03:29:16.459Z,101847.72
2023-02-15T03:30:21.815Z,101851.00
2023-02-15T03:31:30.311Z,101851.38
2023-02-15T03:32:34.434Z,101851.56
2023-02-15T03:33:42.811Z,101846.72
2023-02-15T03:34:45.135Z,101837.53
2023-02-15T03:35:55.100Z,101846.91
2023-02-15T03:37:07.843Z,101852.78
2023-02-15T03:38:12.270Z,101847.03
2023-02-15T03:39:21.027Z,101835.66
2023-02-15T03:40:45.618Z,101827.38
2023-02-15T03:41:55.838Z,101839.47
2023-02-15T03:43:03.543Z,101843.34
2023-02-15T03:44:13.892Z,101836.38
2023-02-15T03:45:20.890Z,101834.47
2023-02-15T03:46:29.006Z,101822.06
2023-02-15T03:47:34.908Z,101833.91
2023-02-15T03:48:42.584Z,101831.00
2023-02-15T03:49:54.398Z,101814.41
2023-02-15T03:51:20.474Z,101844.19
2023-02-15T03:52:24.414Z,101835.53
2023-02-15T03:53:30.009Z,101844.47
2023-02-15T03:54:44.493Z,101832.06
2023-02-15T03:55:48.757Z,101830.84
2023-02-15T03:57:11.092Z,101829.56
2023-02-15T03:58:31.491Z,101835.16
2023-02-15T03:59:56.839Z,101826.59
2023-02-15T04:01:19.477Z,101844.91
2023-02-15T04:02:27.064Z,101837.03
2023-02-15T04:03:34.971Z,101837.69
2023-02-15T04:04:39.784Z,101815.91
2023-02-15T04:05:42.759Z,101847.31
2023-02-15T04:06:46.754Z,101817.25
2023-02-15T04:07:48.520Z,101838.06
2023-02-15T04:09:08.628Z,101834.34
2023-02-15T04:10:29.494Z,101810.97
2023-02-15T04:11:34.649Z,101834.63
2023-02-15T04:12:36.267Z,101833.50
2023-02-15T04:13:39.351Z,101832.22
2023-02-15T04:14:59.667Z,101840.66
2023-02-15T04:16:04.664Z,101838.88
2023-02-15T04:17:07.734Z,101839.09
2023-02-15T04:18:12.164Z,101835.28
2023-02-15T04:19:32.253Z,101837.75
2023-02-15T04:20:53.281Z,101835.28
2023-02-15T04:22:14.859Z,101837.84
2023-02-15T04:23:35.313Z,101827.66
2023-02-15T04:24:55.265Z,101829.63
2023-02-15T04:25:57.914Z,101824.91
2023-02-15T04:27:00.848Z,101822.84
2023-02-15T04:28:03.494Z,101815.84
2023-02-15T04:29:05.237Z,101796.88
2023-02-15T04:30:09.349Z,101811.78
2023-02-15T04:31:11.161Z,101820.03
2023-02-15T04:32:13.845Z,101829.25
2023-02-15T04:33:16.132Z,101814.25
2023-02-15T04:34:18.950Z,101805.63
2023-02-15T04:35:20.603Z,101807.25
2023-02-15T04:36:23.314Z,101796.94
2023-02-15T04:37:27.444Z,101817.63
2023-02-15T04:38:29.136Z,101813.22
2023-02-15T04:39:33.105Z,101825.19
2023-02-15T04:40:35.773Z,101804.44
2023-02-15T04:41:37.915Z,101824.09
2023-02-15T04:42:40.508Z,101796.06
2023-02-15T04:43:42.173Z,101791.47
2023-02-15T04:44:44.892Z,101811.38
2023-02-15T04:45:51.204Z,101817.06
2023-02-15T04:46:53.401Z,101799.97
2023-02-15T04:47:58.280Z,101810.09
2023-02-15T04:48:59.975Z,101801.63
2023-02-15T04:50:02.769Z,101804.69
2023-02-15T04:51:06.593Z,101789.25
2023-02-15T04:52:09.226Z,101791.88
2023-02-15T04:53:12.420Z,101809.16
2023-02-15T04:54:15.266Z,101792.13
2023-02-15T04:55:17.063Z,101798.41
2023-02-15T04:56:19.684Z,101784.94
2023-02-15T04:57:21.462Z,101797.41
2023-02-15T04:58:24.128Z,101796.13
2023-02-15T04:59:25.853Z,101783.28
2023-02-15T05:00:28.493Z,101791.72
2023-02-15T05:01:33.248Z,101794.34
2023-02-15T05:02:35.853Z,101795.63
2023-02-15T05:03:38.384Z,101789.00
2023-02-15T05:04:41.151Z,101783.56
2023-02-15T05:05:43.660Z,101797.88
2023-02-15T05:06:47.885Z,101794.91
2023-02-15T05:07:49.887Z,101803.13
2023-02-15T05:08:53.978Z,101789.22
2023-02-15T05:09:55.955Z,101805.00
2023-02-15T05:10:58.809Z,101797.66
2023-02-15T05:12:00.619Z,101786.59
2023-02-15T05:13:03.276Z,101797.88
2023-02-15T05:14:05.276Z,101780.25
2023-02-15T05:15:10.234Z,101795.66
2023-02-15T05:16:12.298Z,101784.09
2023-02-15T05:17:15.888Z,101779.09
2023-02-15T05:18:18.407Z,101794.47
2023-02-15T05:19:21.248Z,101786.81
2023-02-15T05:20:22.841Z,101788.72
2023-02-15T05:21:25.424Z,101788.28
2023-02-15T05:22:27.019Z,101785.53
2023-02-15T05:23:32.615Z,101788.41
2023-02-15T05:24:54.025Z,101761.16
2023-02-15T05:26:10.808Z,101767.00
2023-02-15T05:27:31.478Z,101786.56
2023-02-15T05:28:35.537Z,101783.16
2023-02-15T05:29:37.218Z,101781.59
2023-02-15T05:30:40.745Z,101785.53
2023-02-15T05:31:43.122Z,101776.34
2023-02-15T05:32:45.941Z,101766.03
2023-02-15T05:33:47.742Z,101775.63
2023-02-15T05:34:50.287Z,101753.56
2023-02-15T05:35:52.261Z,101758.41
2023-02-15T05:36:54.958Z,101764.06
2023-02-15T05:37:57.567Z,101775.63
2023-02-15T05:39:00.174Z,101772.44
2023-02-15T05:40:03.776Z,101755.66
2023-02-15T05:41:06.708Z,101766.94
2023-02-15T05:42:08.303Z,101772.78
2023-02-15T05:43:13.120Z,101767.16
2023-02-15T05:44:15.036Z,101755.00
2023-02-15T05:45:17.711Z,101769.66
2023-02-15T05:46:19.318Z,101767.34
2023-02-15T05:47:21.864Z,101764.97
2023-02-15T05:48:25.533Z,101775.63
2023-02-15T05:49:28.082Z,101768.81
2023-02-15T05:50:29.728Z,101773.34
2023-02-15T05:51:32.280Z,101761.63
2023-02-15T05:52:33.964Z,101762.72
2023-02-15T05:53:39.180Z,101775.44
2023-02-15T05:54:40.785Z,101765.13
2023-02-15T05:55:44.708Z,101771.41
2023-02-15T05:56:46.216Z,101773.81
2023-02-15T05:57:49.021Z,101775.56
2023-02-15T05:58:50.702Z,101767.31
2023-02-15T05:59:53.237Z,101771.13
2023-02-15T06:00:54.957Z,101780.03
2023-02-15T06:01:57.480Z,101773.22
2023-02-15T06:02:59.100Z,101790.47
2023-02-15T06:04:01.885Z,101769.88
2023-02-15T06:05:04.567Z,101774.75
2023-02-15T06:06:08.279Z,101782.25
2023-02-15T06:07:09.882Z,101779.66
2023-02-15T06:08:12.553Z,101786.16
2023-02-15T06:09:14.999Z,101777.75
2023-02-15T06:10:17.712Z,101775.69
2023-02-15T06:11:20.952Z,101770.56
2023-02-15T06:12:23.650Z,101775.09
2023-02-15T06:13:25.276Z,101769.78
2023-02-15T06:14:27.932Z,101785.72
2023-02-15T06:15:29.868Z,101770.75
2023-02-15T06:16:32.416Z,101787.00
2023-02-15T06:17:34.209Z,101773.75
2023-02-15T06:18:36.817Z,101760.03
2023-02-15T06:19:38.355Z,101784.53
2023-02-15T06:20:41.443Z,101785.44
2023-02-15T06:21:44.089Z,101785.19
2023-02-15T06:22:45.660Z,101774.44
2023-02-15T06:23:48.344Z,101767.34
2023-02-15T06:24:53.823Z,101763.47
2023-02-15T06:25:55.357Z,101781.13
2023-02-15T06:26:59.317Z,101767.53
2023-02-15T06:28:00.942Z,101772.03
2023-02-15T06:29:03.736Z,101767.78
2023-02-15T06:30:06.892Z,101775.94
2023-02-15T06:31:09.889Z,101769.09
2023-02-15T06:32:11.803Z,101780.78
2023-02-15T06:33:15.590Z,101778.84
2023-02-15T06:34:17.507Z,101768.84
2023-02-15T06:35:20.112Z,101778.16
2023-02-15T06:36:21.675Z,101777.75
2023-02-15T06:37:24.416Z,101770.91
2023-02-15T06:38:26.018Z,101784.09
2023-02-15T06:39:29.096Z,101750.19
2023-02-15T06:40:31.057Z,101776.50
2023-02-15T06:41:33.636Z,101767.19
2023-02-15T06:42:36.572Z,101774.69
2023-02-15T06:43:40.971Z,101775.72
2023-02-15T06:44:42.715Z,101785.78
2023-02-15T06:45:45.332Z,101779.09
2023-02-15T06:46:47.273Z,101769.31
2023-02-15T06:47:49.900Z,101780.16
2023-02-15T06:48:51.766Z,101779.19
2023-02-15T06:49:54.367Z,101762.59
2023-02-15T06:50:56.204Z,101777.97
2023-02-15T06:51:58.821Z,101767.38
2023-02-15T06:53:00.711Z,101753.81
2023-02-15T06:54:03.323Z,101776.00
2023-02-15T06:55:05.632Z,101758.16
2023-02-15T06:56:10.298Z,101773.00
2023-02-15T06:57:11.961Z,101773.31
2023-02-15T06:58:18.050Z,101778.63
2023-02-15T06:59:20.657Z,101764.63
2023-02-15T07:00:24.181Z,101772.78
2023-02-15T07:01:25.830Z,101765.34
2023-02-15T07:02:28.487Z,101763.03
2023-02-15T07:03:30.482Z,101771.84
2023-02-15T07:04:33.184Z,101760.69
2023-02-15T07:05:35.436Z,101760.56
2023-02-15T07:06:37.976Z,101750.84
2023-02-15T07:07:39.636Z,101758.22
2023-02-15T07:08:42.268Z,101757.69
2023-02-15T07:09:43.914Z,101762.47
2023-02-15T07:10:46.519Z,101750.59
2023-02-15T07:12:06.744Z,101741.00
2023-02-15T07:13:08.302Z,101750.50
2023-02-15T07:14:12.236Z,101745.38
2023-02-15T07:15:16.431Z,101750.31
2023-02-15T07:16:18.031Z,101741.16
2023-02-15T07:17:35.620Z,101736.56
2023-02-15T07:18:38.903Z,101746.00
2023-02-15T07:19:40.504Z,101753.03
2023-02-15T07:20:43.167Z,101734.88
2023-02-15T07:21:46.461Z,101753.69
2023-02-15T07:22:49.383Z,101736.81
2023-02-15T07:23:51.069Z,101742.50
2023-02-15T07:24:55.529Z,101725.06
2023-02-15T07:25:59.190Z,101750.25
2023-02-15T07:27:01.802Z,101746.09
2023-02-15T07:28:06.128Z,101723.84
2023-02-15T07:29:07.849Z,101743.66
2023-02-15T07:30:14.152Z,101733.84
2023-02-15T07:31:15.793Z,101736.63
2023-02-15T07:32:18.388Z,101736.16
2023-02-15T07:33:27.900Z,101735.50
2023-02-15T07:34:30.422Z,101725.09
2023-02-15T07:35:32.436Z,101741.00
2023-02-15T07:36:35.083Z,101730.88
2023-02-15T07:37:37.750Z,101729.00
2023-02-15T07:38:42.169Z,101714.56
2023-02-15T07:39:44.709Z,101734.72
2023-02-15T07:40:46.548Z,101729.59
2023-02-15T07:41:50.193Z,101738.09
2023-02-15T07:42:54.399Z,101711.88
2023-02-15T07:43:57.150Z,101711.25
2023-02-15T07:44:58.795Z,101732.06
2023-02-15T07:46:03.995Z,101727.91
2023-02-15T07:47:06.236Z,101716.19
2023-02-15T07:48:09.479Z,101728.19
2023-02-15T07:49:11.099Z,101708.13
2023-02-15T07:50:13.872Z,101726.81
2023-02-15T07:51:17.249Z,101728.81
2023-02-15T07:52:21.677Z,101706.38
2023-02-15T07:53:23.424Z,101724.47
2023-02-15T07:54:26.101Z,101720.25
2023-02-15T07:55:27.744Z,101724.09
2023-02-15T07:56:31.329Z,101695.63
2023-02-15T07:57:35.005Z,101721.00
2023-02-15T07:58:53.017Z,101711.63
2023-02-15T07:59:56.041Z,101701.97
2023-02-15T08:00:57.920Z,101717.59
2023-02-15T08:02:02.002Z,101714.53
2023-02-15T08:03:17.023Z,101717.06
2023-02-15T08:04:24.813Z,101709.44
2023-02-15T08:05:26.518Z,101698.84
2023-02-15T08:06:30.514Z,101698.81
2023-02-15T08:07:33.319Z,101692.00
2023-02-15T08:08:36.384Z,101713.47
2023-02-15T08:09:39.368Z,101695.56
2023-02-15T08:10:59.738Z,101712.78
2023-02-15T08:12:03.202Z,101712.22
2023-02-15T08:13:04.759Z,101713.09
2023-02-15T08:14:09.653Z,101707.16
2023-02-15T08:15:11.226Z,101694.72
2023-02-15T08:16:15.415Z,101693.38
2023-02-15T08:17:19.322Z,101701.97
2023-02-15T08:18:20.974Z,101707.28
2023-02-15T08:19:25.876Z,101705.09
2023-02-15T08:20:27.685Z,101709.19
2023-02-15T08:21:31.778Z,101700.72
2023-02-15T08:22:34.745Z,101715.47
2023-02-15T08:23:36.408Z,101704.06
2023-02-15T08:24:39.551Z,101714.09
2023-02-15T08:25:41.120Z,101713.50
2023-02-15T08:26:45.960Z,101699.31
2023-02-15T08:27:48.804Z,101709.41
2023-02-15T08:28:51.787Z,101714.47
2023-02-15T08:29:54.564Z,101704.88
2023-02-15T08:30:56.219Z,101701.25
2023-02-15T08:32:04.358Z,101705.44
2023-02-15T08:33:07.349Z,101709.75
2023-02-15T08:34:11.446Z,101688.94
2023-02-15T08:35:14.142Z,101702.69
2023-02-15T08:36:17.611Z,101705.28
2023-02-15T08:37:20.137Z,101691.66
2023-02-15T08:38:21.741Z,101696.63
2023-02-15T08:39:26.166Z,101706.69
2023-02-15T08:40:27.989Z,101695.19
2023-02-15T08:41:33.301Z,101701.84
2023-02-15T08:42:35.159Z,101685.13
2023-02-15T08:43:37.695Z,101693.13
2023-02-15T08:44:40.630Z,101675.25
2023-02-15T08:45:42.705Z,101698.06
2023-02-15T08:46:46.975Z,101683.72
2023-02-15T08:47:49.532Z,101680.59
2023-02-15T08:48:53.768Z,101666.09
2023-02-15T08:49:56.916Z,101694.56
2023-02-15T08:50:58.569Z,101682.13
2023-02-15T08:52:01.631Z,101685.16
2023-02-15T08:53:03.145Z,101692.69
2023-02-15T08:54:08.225Z,101676.72
2023-02-15T08:55:10.792Z,101699.38
2023-02-15T08:56:13.032Z,101689.81
2023-02-15T08:57:15.679Z,101681.28
2023-02-15T08:58:17.231Z,101682.44
2023-02-15T08:59:22.422Z,101705.56
2023-02-15T09:00:24.208Z,101683.66
2023-02-15T09:01:29.003Z,101689.72
2023-02-15T09:02:30.657Z,101679.53
2023-02-15T09:03:33.638Z,101689.91
2023-02-15T09:04:37.778Z,101681.00
2023-02-15T09:05:39.665Z,101689.50
2023-02-15T09:06:44.035Z,101682.28
2023-02-15T09:07:45.757Z,101682.13
2023-02-15T09:08:48.447Z,101659.13
2023-02-15T09:09:50.964Z,101693.81
2023-02-15T09:10:52.571Z,101669.06
2023-02-15T09:11:59.269Z,101686.81
2023-02-15T09:13:01.199Z,101673.50
2023-02-15T09:14:06.514Z,101678.47
2023-02-15T09:15:08.655Z,101665.78
2023-02-15T09:16:11.809Z,101671.00
2023-02-15T09:17:16.106Z,101656.66
2023-02-15T09:18:18.096Z,101671.63
2023-02-15T09:19:23.059Z,101673.75
2023-02-15T09:20:26.133Z,101659.00
2023-02-15T09:21:29.160Z,101669.84
2023-02-15T09:22:35.102Z,101649.50
2023-02-15T09:23:38.351Z,101676.03
2023-02-15T09:24:40.927Z,101661.97
2023-02-15T09:25:43.520Z,101667.78
2023-02-15T09:26:48.099Z,101681.31
2023-02-15T09:27:49.711Z,101671.34
2023-02-15T09:28:56.463Z,101680.09
2023-02-15T09:29:59.052Z,101668.63
2023-02-15T09:31:10.569Z,101675.50
2023-02-15T09:32:16.018Z,101676.13
2023-02-15T09:33:17.627Z,101686.13
2023-02-15T09:34:22.852Z,101681.97
2023-02-15T09:35:26.070Z,101673.44
2023-02-15T09:36:34.176Z,101669.91
2023-02-15T09:37:36.180Z,101672.00
2023-02-15T09:38:38.925Z,101682.38
2023-02-15T09:39:44.687Z,101674.06
2023-02-15T09:41:03.697Z,101683.84
2023-02-15T09:42:27.321Z,101670.31
2023-02-15T09:43:41.296Z,101674.50
2023-02-15T09:45:05.748Z,101668.66
2023-02-15T09:46:24.465Z,101670.53
2023-02-15T09:47:46.100Z,101676.56
2023-02-15T09:48:55.324Z,101673.66
2023-02-15T09:50:03.831Z,101678.84
2023-02-15T09:51:45.235Z,101678.00
2023-02-15T09:53:00.297Z,101674.47
2023-02-15T09:54:12.471Z,101675.31
2023-02-15T09:55:32.435Z,101664.50
2023-02-15T09:56:41.227Z,101673.84
2023-02-15T09:57:52.261Z,101672.81
2023-02-15T09:59:04.913Z,101677.78
2023-02-15T10:00:20.389Z,101668.84
2023-02-15T10:01:35.836Z,101664.69
2023-02-15T10:02:55.345Z,101667.16
2023-02-15T10:04:13.886Z,101656.78
2023-02-15T10:05:33.320Z,101652.03
2023-02-15T10:06:43.089Z,101669.44
2023-02-15T10:08:17.648Z,101660.25
2023-02-15T10:09:44.581Z,101665.66
2023-02-15T10:10:58.126Z,101667.75
2023-02-15T10:12:17.987Z,101663.16
2023-02-15T10:13:34.022Z,101652.31
2023-02-15T10:15:01.772Z,101666.22
2023-02-15T10:16:19.020Z,101655.94
2023-02-15T10:17:39.384Z,101644.41
2023-02-15T10:18:55.094Z,101660.94
2023-02-15T10:20:12.029Z,101654.25
2023-02-15T10:21:25.096Z,101643.34
2023-02-15T10:22:38.589Z,101654.28
2023-02-15T10:24:03.578Z,101656.97
2023-02-15T10:25:19.357Z,101655.53
2023-02-15T10:26:24.140Z,101663.63
2023-02-15T10:27:28.205Z,101662.13
2023-02-15T10:28:44.025Z,101662.78
2023-02-15T10:29:56.740Z,101646.91
2023-02-15T10:31:09.772Z,101662.41
2023-02-15T10:32:24.810Z,101667.31
2023-02-15T10:33:40.516Z,101663.53
2023-02-15T10:34:52.576Z,101664.88
2023-02-15T10:36:06.862Z,101662.63
2023-02-15T10:37:30.459Z,101658.44
2023-02-15T10:38:39.836Z,101661.44
2023-02-15T10:39:52.775Z,101650.94
2023-02-15T10:41:10.812Z,101643.16
2023-02-15T10:42:22.733Z,101642.59
2023-02-15T10:43:41.765Z,101643.38
2023-02-15T10:45:00.986Z,101645.13
2023-02-15T10:46:13.359Z,101639.09
2023-02-15T10:47:35.136Z,101638.28
2023-02-15T10:48:54.632Z,101634.97
2023-02-15T10:50:11.064Z,101625.97
2023-02-15T10:51:21.275Z,101632.16
2023-02-15T10:52:38.162Z,101641.25
2023-02-15T10:54:04.297Z,101640.81
2023-02-15T10:55:15.241Z,101644.03
2023-02-15T10:56:25.969Z,101640.06
2023-02-15T10:57:36.687Z,101632.53
2023-02-15T10:58:53.159Z,101634.91
2023-02-15T11:00:07.973Z,101639.03
2023-02-15T11:01:21.046Z,101621.16
2023-02-15T11:02:35.083Z,101629.09
2023-02-15T11:03:58.453Z,101632.59
2023-02-15T11:05:16.251Z,101630.50
2023-02-15T11:06:21.721Z,101628.00
2023-02-15T11:07:27.802Z,101630.94
2023-02-15T11:08:34.562Z,101629.56
2023-02-15T11:09:43.136Z,101631.22
2023-02-15T11:10:52.502Z,101624.75
2023-02-15T11:11:58.223Z,101612.97
2023-02-15T11:13:07.512Z,101629.94
2023-02-15T11:14:17.463Z,101611.69
2023-02-15T11:15:25.769Z,101611.03
2023-02-15T11:16:33.784Z,101615.38
2023-02-15T11:17:41.299Z,101612.66
2023-02-15T11:18:49.632Z,101614.53
2023-02-15T11:19:59.144Z,101614.44
2023-02-15T11:21:08.009Z,101619.34
2023-02-15T11:22:12.613Z,101618.59
2023-02-15T11:23:19.393Z,101602.63
2023-02-15T11:24:22.719Z,101600.22
2023-02-15T11:25:29.680Z,101609.34
2023-02-15T11:26:38.424Z,101603.13
2023-02-15T11:27:41.214Z,101612.53
2023-02-15T11:28:49.520Z,101613.31
2023-02-15T11:29:59.413Z,101601.50
2023-02-15T11:31:13.188Z,101607.31
2023-02-15T11:32:22.153Z,101613.72
2023-02-15T11:33:29.908Z,101600.44
2023-02-15T11:34:38.321Z,101609.69
2023-02-15T11:35:49.817Z,101600.88
2023-02-15T11:36:57.146Z,101606.31
2023-02-15T11:38:06.247Z,101604.91
2023-02-15T11:39:13.252Z,101597.47
2023-02-15T11:40:23.143Z,101595.81
2023-02-15T11:41:30.434Z,101596.09
2023-02-15T11:42:34.432Z,101589.91
2023-02-15T11:43:42.124Z,101575.72
2023-02-15T11:44:56.280Z,101581.03
2023-02-15T11:45:58.999Z,101576.03
2023-02-15T11:47:04.540Z,101566.25
2023-02-15T11:48:11.702Z,101577.22
2023-02-15T11:49:24.478Z,101566.72
2023-02-15T11:50:29.674Z,101572.41
2023-02-15T11:51:32.237Z,101560.47
2023-02-15T11:52:34.803Z,101575.97
2023-02-15T11:53:40.497Z,101555.41
2023-02-15T11:54:45.117Z,101550.75
2023-02-15T11:55:49.483Z,101564.84
2023-02-15T11:56:51.349Z,101566.63
2023-02-15T11:57:58.654Z,101553.44
2023-02-15T11:59:08.213Z,101550.91
2023-02-15T12:00:18.038Z,101553.00
2023-02-15T12:01:25.652Z,101547.22
2023-02-15T12:02:31.121Z,101550.94
2023-02-15T12:03:46.603Z,101549.06
2023-02-15T12:04:54.826Z,101547.81
2023-02-15T12:06:03.461Z,101537.75
2023-02-15T12:07:16.188Z,101546.91
2023-02-15T12:08:21.978Z,101538.97
2023-02-15T12:09:33.846Z,101541.72
2023-02-15T12:10:42.074Z,101543.47
2023-02-15T12:11:44.646Z,101545.84
2023-02-15T12:12:46.399Z,101541.06
2023-02-15T12:13:58.586Z,101539.50
2023-02-15T12:15:01.956Z,101546.50
2023-02-15T12:16:11.477Z,101530.94
2023-02-15T12:17:15.447Z,101538.63
2023-02-15T12:18:36.909Z,101545.44
2023-02-15T12:19:41.396Z,101555.47
2023-02-15T12:20:45.034Z,101546.66
2023-02-15T12:21:53.352Z,101538.31
2023-02-15T12:23:03.011Z,101542.22
2023-02-15T12:24:17.705Z,101543.69
2023-02-15T12:25:24.713Z,101541.75
2023-02-15T12:26:29.136Z,101545.66
2023-02-15T12:27:34.045Z,101535.94
2023-02-15T12:28:40.714Z,101542.16
2023-02-15T12:29:48.096Z,101533.97
2023-02-15T12:30:50.890Z,101532.00
2023-02-15T12:31:54.644Z,101529.81
2023-02-15T12:33:00.905Z,101532.91
2023-02-15T12:34:11.503Z,101537.94
2023-02-15T12:35:23.054Z,101520.53
2023-02-15T12:36:29.328Z,101528.88
2023-02-15T12:37:35.610Z,101527.41
2023-02-15T12:38:37.347Z,101529.78